Time;durP1;ratioP1;P1;durP2;ratioP2;P2;SDS_P1;SDS_P2;PMS_P1;PMS_P2;Temp;Humidity;BMP_temperature;BMP_pressure;BME280_temperature;BME280_humidity;BME280_pressure;Samples;Min_cycle;Max_cycle;Signal;HPM_P1;HPM_P2
2023/02/11 06:26:51;;;;;;;29.55;5.65;;;15.00;68.80;;;;;;4839082;29;20054;-75
2023/02/11 06:29:16;;;;;;;24.05;4.80;;;15.00;68.90;;;;;;4845405;29;20121;-75
2023/02/11 06:31:42;;;;;;;21.15;4.80;;;15.10;68.70;;;;;;4845779;29;20050;-73
2023/02/11 06:34:09;;;;;;;21.83;4.85;;;15.20;68.70;;;;;;4845608;29;20062;-73
2023/02/11 06:36:37;;;;;;;28.42;5.90;;;15.20;68.50;;;;;;4829705;29;20143;-76
2023/02/11 06:39:02;;;;;;;26.42;5.00;;;15.30;68.30;;;;;;4829506;29;20053;-76
2023/02/11 06:41:29;;;;;;;23.30;6.22;;;15.30;68.40;;;;;;4829445;29;20086;-78
2023/02/11 06:43:54;;;;;;;18.30;6.38;;;15.30;68.00;;;;;;4829357;29;20132;-76
2023/02/11 06:46:21;;;;;;;28.80;5.93;;;15.40;67.30;;;;;;4844596;29;20062;-77
2023/02/11 06:48:52;;;;;;;32.80;7.50;;;15.40;66.70;;;;;;4845348;29;20052;-77
2023/02/11 06:51:17;;;;;;;30.50;6.45;;;15.40;66.30;;;;;;4845677;29;20435;-77
2023/02/11 06:53:45;;;;;;;24.33;6.47;;;15.50;66.30;;;;;;4813917;29;20129;-77
2023/02/11 06:56:13;;;;;;;17.80;6.47;;;15.50;66.00;;;;;;4845647;29;20053;-78
2023/02/11 06:58:39;;;;;;;22.05;7.10;;;15.20;63.10;;;;;;4844663;29;20058;-79
2023/02/11 07:01:12;;;;;;;28.85;7.43;;;15.00;63.50;;;;;;4829593;29;20054;-74
2023/02/11 07:03:42;;;;;;;42.58;7.55;;;15.10;65.60;;;;;;4844919;29;20073;-72
2023/02/11 07:06:10;;;;;;;30.42;6.13;;;15.20;66.00;;;;;;4844720;29;20046;-76
2023/02/11 07:08:37;;;;;;;27.58;6.15;;;15.30;65.70;;;;;;4844846;29;20466;-77
2023/02/11 07:11:12;;;;;;;35.63;6.53;;;15.30;65.60;;;;;;4827895;29;20058;-75
2023/02/11 07:13:38;;;;;;;25.80;6.15;;;15.40;65.40;;;;;;4844842;29;20063;-75
2023/02/11 07:16:06;;;;;;;36.40;6.72;;;15.40;65.30;;;;;;4845078;29;20124;-74
2023/02/11 07:18:32;;;;;;;31.58;5.50;;;15.40;64.90;;;;;;4845044;29;20446;-74
2023/02/11 07:20:58;;;;;;;38.95;7.22;;;15.30;65.20;;;;;;4828823;29;20091;-74
2023/02/11 07:23:23;;;;;;;40.55;6.85;;;15.30;65.30;;;;;;4844973;29;20053;-76
2023/02/11 07:25:49;;;;;;;27.70;7.13;;;15.30;65.30;;;;;;4844048;29;20132;-78
2023/02/11 07:28:15;;;;;;;37.08;7.78;;;15.30;65.00;;;;;;4844151;29;20070;-77
2023/02/11 07:30:40;;;;;;;28.55;7.43;;;15.20;64.90;;;;;;4844581;29;20129;-74
2023/02/11 07:33:06;;;;;;;26.15;8.10;;;15.20;64.90;;;;;;4845010;29;20068;-74
2023/02/11 07:35:32;;;;;;;24.17;8.07;;;15.20;64.60;;;;;;4844893;29;20057;-74
2023/02/11 07:37:57;;;;;;;20.35;7.72;;;15.10;64.30;;;;;;4844961;29;20092;-75
2023/02/11 07:40:23;;;;;;;22.67;7.80;;;15.10;64.20;;;;;;4844470;29;20194;-76
2023/02/11 07:42:49;;;;;;;16.23;7.80;;;15.00;64.00;;;;;;4829595;29;20050;-79
2023/02/11 07:45:15;;;;;;;20.48;7.18;;;15.00;64.00;;;;;;4828644;29;20052;-77
2023/02/11 07:47:41;;;;;;;19.35;6.43;;;15.00;64.10;;;;;;4828413;29;20073;-78
2023/02/11 07:50:08;;;;;;;22.58;7.55;;;14.90;64.00;;;;;;4828098;29;20137;-81
2023/02/11 07:52:34;;;;;;;25.23;7.93;;;14.90;64.00;;;;;;4828425;29;20597;-78
2023/02/11 07:55:00;;;;;;;28.00;7.70;;;14.80;64.30;;;;;;4844445;29;20052;-78
2023/02/11 07:57:26;;;;;;;40.08;9.40;;;14.80;64.60;;;;;;4828411;29;20064;-77
2023/02/11 07:59:52;;;;;;;30.63;7.88;;;14.70;64.80;;;;;;4830153;29;20049;-79
2023/02/11 08:02:18;;;;;;;35.92;7.95;;;14.70;65.20;;;;;;4843923;29;20042;-78
2023/02/11 08:04:47;;;;;;;37.83;7.95;;;14.70;65.30;;;;;;4843673;29;20335;-81
2023/02/11 08:07:16;;;;;;;31.00;8.02;;;14.60;65.40;;;;;;4828129;29;20046;-78
2023/02/11 08:09:42;;;;;;;32.90;7.45;;;14.60;66.10;;;;;;4842923;29;20464;-81
2023/02/11 08:12:08;;;;;;;34.67;7.70;;;14.60;65.60;;;;;;4826769;29;20046;-77
2023/02/11 08:14:34;;;;;;;25.48;6.78;;;14.60;65.60;;;;;;4825713;29;20423;-80
2023/02/11 08:17:00;;;;;;;24.63;7.53;;;14.50;65.50;;;;;;4813142;29;20121;-78
2023/02/11 08:19:26;;;;;;;28.73;7.68;;;14.50;65.50;;;;;;4828019;29;20046;-76
2023/02/11 08:21:55;;;;;;;25.23;6.18;;;14.50;65.70;;;;;;4827670;29;20081;-77
2023/02/11 08:24:22;;;;;;;30.98;6.50;;;14.50;65.70;;;;;;4828563;29;20097;-76
2023/02/11 08:26:48;;;;;;;23.55;6.55;;;14.50;65.80;;;;;;4843672;29;20126;-79
2023/02/11 08:29:15;;;;;;;37.20;5.50;;;14.40;65.90;;;;;;4828233;29;20136;-78
2023/02/11 08:31:43;;;;;;;19.92;5.07;;;14.40;65.90;;;;;;4844180;29;20113;-79
2023/02/11 08:34:10;;;;;;;31.20;6.55;;;14.40;65.80;;;;;;4844235;29;20137;-78
2023/02/11 08:36:37;;;;;;;23.25;5.80;;;14.40;65.80;;;;;;4828526;29;20057;-80
2023/02/11 08:39:06;;;;;;;19.63;4.72;;;14.40;65.90;;;;;;4813763;29;20113;-77
2023/02/11 08:41:33;;;;;;;19.55;5.40;;;14.30;66.10;;;;;;4847683;29;20062;-77
2023/02/11 08:43:59;;;;;;;22.80;5.38;;;14.30;66.10;;;;;;4847215;29;20133;-77
2023/02/11 08:46:27;;;;;;;15.10;4.88;;;14.30;66.40;;;;;;4816425;29;20046;-79
2023/02/11 08:48:53;;;;;;;16.45;4.55;;;14.30;66.20;;;;;;4831033;29;20438;-78
2023/02/11 08:51:26;;;;;;;23.23;4.95;;;14.30;66.00;;;;;;4847012;29;20049;-79
2023/02/11 08:53:54;;;;;;;23.55;4.70;;;14.30;65.90;;;;;;4846485;29;20057;-78
2023/02/11 08:56:22;;;;;;;19.88;4.70;;;14.20;65.90;;;;;;4845963;29;20102;-77
2023/02/11 08:58:47;;;;;;;17.00;5.10;;;14.20;65.90;;;;;;4846910;29;20058;-79
2023/02/11 09:01:20;;;;;;;13.50;3.33;;;14.20;65.90;;;;;;4846797;29;20121;-79
2023/02/11 09:03:45;;;;;;;15.57;4.25;;;14.20;66.00;;;;;;4830388;29;20049;-79
2023/02/11 09:06:12;;;;;;;18.40;4.32;;;14.20;66.00;;;;;;4815395;29;20377;-79
2023/02/11 09:08:41;;;;;;;14.45;3.88;;;14.30;66.00;;;;;;4845583;29;20129;-79
2023/02/11 09:11:07;;;;;;;10.70;3.20;;;14.30;66.20;;;;;;4829797;29;20132;-79
2023/02/11 09:13:33;;;;;;;14.63;3.50;;;14.40;66.10;;;;;;4830368;29;20578;-81
2023/02/11 09:16:00;;;;;;;10.95;2.78;;;14.60;66.00;;;;;;4822737;29;20094;-77
2023/02/11 09:18:27;;;;;;;10.55;2.95;;;14.60;65.80;;;;;;4846083;29;20085;-79
2023/02/11 09:21:00;;;;;;;11.65;3.65;;;14.70;65.70;;;;;;4827750;29;20046;-79
2023/02/11 09:23:26;;;;;;;13.50;3.23;;;14.80;65.60;;;;;;4846063;29;20050;-78
2023/02/11 09:25:51;;;;;;;16.60;2.80;;;14.90;65.60;;;;;;4846108;29;20049;-79
2023/02/11 09:28:17;;;;;;;10.43;2.78;;;14.90;65.50;;;;;;4846435;29;20046;-77
2023/02/11 09:30:43;;;;;;;12.98;3.45;;;14.90;65.50;;;;;;4829418;29;20102;-78
2023/02/11 09:33:08;;;;;;;11.60;2.80;;;14.90;65.30;;;;;;4845673;29;20061;-78
2023/02/11 09:35:34;;;;;;;13.20;3.63;;;15.00;65.30;;;;;;4846034;29;20133;-79
2023/02/11 09:38:00;;;;;;;11.63;2.63;;;15.00;65.90;;;;;;4846235;29;20171;-78
2023/02/11 09:40:26;;;;;;;11.43;2.60;;;15.10;65.20;;;;;;4814957;29;20453;-78
2023/02/11 09:43:10;;;;;;;13.15;2.50;;;15.20;65.10;;;;;;4830134;29;20504;-74
2023/02/11 09:45:36;;;;;;;13.10;2.78;;;15.30;65.00;;;;;;4844417;29;20044;-79
2023/02/11 09:48:12;;;;;;;14.02;3.38;;;15.40;64.60;;;;;;4834499;29;20042;-80
2023/02/11 09:50:52;;;;;;;12.63;3.00;;;15.50;64.60;;;;;;4845413;29;20435;-80
2023/02/11 09:53:21;;;;;;;11.05;1.98;;;15.50;64.40;;;;;;4829764;29;20077;-79
2023/02/11 09:55:54;;;;;;;10.05;2.42;;;15.60;64.40;;;;;;4829971;29;20365;-80
2023/02/11 09:58:32;;;;;;;7.85;2.38;;;15.70;64.30;;;;;;4839914;29;20199;-78
2023/02/11 10:01:30;;;;;;;6.05;1.95;;;15.70;64.30;;;;;;4829408;29;20060;-79
2023/02/11 10:04:08;;;;;;;9.45;2.40;;;15.80;64.30;;;;;;4824916;29;20058;-78
2023/02/11 10:06:54;;;;;;;13.98;2.53;;;15.80;64.10;;;;;;4846022;29;20065;-78
2023/02/11 10:09:59;;;;;;;11.95;2.63;;;15.80;64.40;;;;;;4842643;29;20121;-78
2023/02/11 10:12:41;;;;;;;16.42;4.22;;;15.90;64.40;;;;;;4828274;29;20389;-76
2023/02/11 10:15:15;;;;;;;19.05;4.60;;;16.00;64.60;;;;;;4829761;29;20132;-77
2023/02/11 10:17:53;;;;;;;14.68;3.55;;;16.10;65.00;;;;;;4815253;29;20140;-78
2023/02/11 10:20:28;;;;;;;19.45;5.10;;;16.10;64.80;;;;;;4845251;29;20125;-77
2023/02/11 10:23:00;;;;;;;13.82;3.50;;;16.10;64.80;;;;;;4830103;29;20058;-75
2023/02/11 10:25:38;;;;;;;16.08;3.90;;;16.10;64.80;;;;;;4845727;29;20465;-75
2023/02/11 10:28:11;;;;;;;7.90;3.08;;;16.10;64.80;;;;;;4846403;29;20068;-78
2023/02/11 10:30:48;;;;;;;14.93;3.53;;;16.10;64.90;;;;;;4829323;29;20072;-77
2023/02/11 10:33:39;;;;;;;13.13;3.00;;;16.10;65.00;;;;;;4846335;29;20148;-76
2023/02/11 10:36:05;;;;;;;18.40;3.60;;;16.10;64.70;;;;;;4846362;29;20431;-76
2023/02/11 10:38:32;;;;;;;13.38;3.10;;;16.10;64.60;;;;;;4826858;29;20476;-75
2023/02/11 10:40:58;;;;;;;14.98;3.10;;;16.00;64.50;;;;;;4827550;29;20056;-77
2023/02/11 10:43:28;;;;;;;12.50;3.38;;;16.10;64.10;;;;;;4826389;29;20065;-77
2023/02/11 10:45:55;;;;;;;13.93;4.20;;;16.10;63.80;;;;;;4811591;29;20133;-76
2023/02/11 10:48:42;;;;;;;14.57;3.42;;;16.00;63.70;;;;;;4827628;29;20054;-77
2023/02/11 10:51:30;;;;;;;18.38;3.80;;;16.00;63.20;;;;;;4827292;29;20086;-77
2023/02/11 10:54:23;;;;;;;20.67;2.83;;;16.00;63.10;;;;;;4827385;29;20454;-78
2023/02/11 10:56:57;;;;;;;18.95;4.53;;;16.10;63.50;;;;;;4845969;29;20089;-78
2023/02/11 10:59:39;;;;;;;18.45;3.40;;;16.20;63.70;;;;;;4829385;29;20068;-77
2023/02/11 11:02:33;;;;;;;13.52;2.50;;;16.20;63.70;;;;;;4845946;29;20418;-80
2023/02/11 11:05:04;;;;;;;15.70;3.55;;;16.30;63.80;;;;;;4845534;29;20054;-77
2023/02/11 11:07:34;;;;;;;13.07;3.42;;;16.30;63.90;;;;;;4828918;29;20119;-77
2023/02/11 11:10:01;;;;;;;14.13;2.67;;;16.30;63.90;;;;;;4845041;29;20500;-77
2023/02/11 11:12:29;;;;;;;15.73;2.63;;;16.30;64.00;;;;;;4829478;29;20144;-77
2023/02/11 11:15:00;;;;;;;14.52;2.45;;;16.30;64.10;;;;;;4844070;29;20068;-79
2023/02/11 11:17:30;;;;;;;13.98;2.67;;;16.30;64.10;;;;;;4845739;29;20061;-78
2023/02/11 11:20:42;;;;;;;8.18;2.22;;;16.30;64.30;;;;;;4829699;29;20062;-79
2023/02/11 11:23:18;;;;;;;8.40;2.67;;;16.30;64.30;;;;;;4843247;29;20528;-80
2023/02/11 11:25:58;;;;;;;16.02;2.53;;;16.30;64.40;;;;;;4843925;29;20136;-79
2023/02/11 11:28:27;;;;;;;14.23;3.15;;;16.20;64.40;;;;;;4845006;29;20052;-78
2023/02/11 11:30:55;;;;;;;8.68;2.10;;;16.20;64.40;;;;;;4844947;29;20064;-78
2023/02/11 11:33:27;;;;;;;11.02;2.67;;;16.20;64.30;;;;;;4845061;29;20357;-79
2023/02/11 11:36:05;;;;;;;12.80;2.53;;;16.20;64.30;;;;;;4844748;29;20450;-79
2023/02/11 11:38:34;;;;;;;10.65;2.55;;;16.20;64.30;;;;;;4829543;29;20433;-79
2023/02/11 11:41:15;;;;;;;10.80;1.67;;;16.20;64.50;;;;;;4813713;29;20046;-79
2023/02/11 11:43:57;;;;;;;8.30;2.17;;;16.20;64.00;;;;;;4844101;29;20110;-76
2023/02/11 11:46:29;;;;;;;8.77;2.30;;;16.20;64.00;;;;;;4828304;29;20554;-78
2023/02/11 11:49:06;;;;;;;9.50;2.13;;;16.20;64.20;;;;;;4843646;29;20052;-76
2023/02/11 11:51:38;;;;;;;7.53;1.60;;;16.20;64.10;;;;;;4839209;29;20042;-79
2023/02/11 11:54:11;;;;;;;5.60;1.42;;;16.20;64.60;;;;;;4825972;29;20050;-78
2023/02/11 11:56:57;;;;;;;12.65;2.05;;;16.20;64.40;;;;;;4844827;29;20050;-78
2023/02/11 11:59:23;;;;;;;14.90;2.67;;;16.20;64.60;;;;;;4827263;29;20046;-80
2023/02/11 12:02:30;;;;;;;12.10;2.40;;;16.20;64.00;;;;;;4843240;29;20403;-80
2023/02/11 12:05:13;;;;;;;11.52;2.83;;;16.20;63.20;;;;;;4800200;29;20054;-78
2023/02/11 12:08:15;;;;;;;12.10;2.83;;;16.20;63.60;;;;;;4828314;29;20042;-79
2023/02/11 12:10:53;;;;;;;12.27;2.28;;;16.20;62.90;;;;;;4828539;29;20378;-80
2023/02/11 12:13:46;;;;;;;11.63;2.55;;;16.10;64.10;;;;;;4822903;29;20372;-77
2023/02/11 12:16:33;;;;;;;18.48;2.72;;;16.20;64.60;;;;;;4812278;29;20069;-76
2023/02/11 12:19:44;;;;;;;16.58;3.85;;;16.20;64.90;;;;;;4827838;29;20045;-78
2023/02/11 12:22:25;;;;;;;16.52;2.80;;;16.20;65.10;;;;;;4814584;29;20053;-78
2023/02/11 12:25:19;;;;;;;25.23;3.53;;;16.20;65.20;;;;;;4827965;29;20042;-79
2023/02/11 12:28:10;;;;;;;20.43;2.93;;;16.20;65.20;;;;;;4827275;29;20447;-77
2023/02/11 12:31:00;;;;;;;20.58;2.88;;;16.20;65.20;;;;;;4827761;29;20046;-74
2023/02/11 12:33:28;;;;;;;18.83;2.92;;;16.20;65.30;;;;;;4826605;29;20089;-79
2023/02/11 12:36:27;;;;;;;34.50;4.65;;;16.20;65.30;;;;;;4843943;29;20057;-76
2023/02/11 12:39:23;;;;;;;23.23;3.13;;;16.20;65.50;;;;;;4842914;29;20054;-78
2023/02/11 12:45:35;;;;;;;26.55;3.45;;;16.10;65.30;;;;;;4843754;29;20057;-77
2023/02/11 12:48:00;;;;;;;20.90;2.80;;;16.10;65.20;;;;;;4825491;29;20064;-73
2023/02/11 12:50:51;;;;;;;16.33;2.30;;;16.10;65.10;;;;;;4843148;29;20050;-76
2023/02/11 12:53:58;;;;;;;13.88;3.30;;;16.10;65.00;;;;;;4843305;29;20090;-76
2023/02/11 12:56:42;;;;;;;19.40;3.50;;;16.10;65.10;;;;;;4843368;29;20106;-75
2023/02/11 12:59:32;;;;;;;14.43;2.10;;;16.10;65.20;;;;;;4843073;29;20046;-75
2023/02/11 13:02:03;;;;;;;16.58;2.67;;;16.10;65.20;;;;;;4827255;29;20076;-77
2023/02/11 13:04:37;;;;;;;16.20;2.45;;;16.10;65.30;;;;;;4843283;29;20050;-75
2023/02/11 13:07:14;;;;;;;13.73;3.25;;;16.10;65.40;;;;;;4843317;29;20058;-75
2023/02/11 13:09:52;;;;;;;12.52;2.47;;;16.10;65.60;;;;;;4842886;29;20050;-77
2023/02/11 13:15:06;;;;;;;15.27;2.28;;;15.90;66.10;;;;;;4842416;29;20050;-75
2023/02/11 13:18:13;;;;;;;12.05;2.55;;;15.80;66.00;;;;;;4842241;29;20052;-74
2023/02/11 13:21:15;;;;;;;12.43;2.28;;;15.80;65.90;;;;;;4806915;29;20450;-76
2023/02/11 13:24:07;;;;;;;13.18;2.22;;;15.80;66.10;;;;;;4842690;29;20049;-75
2023/02/11 13:26:48;;;;;;;15.02;2.25;;;15.80;66.20;;;;;;4825597;29;20133;-76
2023/02/11 13:29:40;;;;;;;12.70;1.80;;;15.70;66.40;;;;;;4841451;29;20114;-76
2023/02/11 13:32:08;;;;;;;11.50;2.17;;;15.70;66.50;;;;;;4815782;29;20193;-77
2023/02/11 13:34:40;;;;;;;11.30;2.47;;;15.70;66.80;;;;;;4798411;29;20061;-76
2023/02/11 13:37:22;;;;;;;11.27;2.58;;;15.70;66.90;;;;;;4829277;29;20038;-75
2023/02/11 13:40:01;;;;;;;13.43;1.95;;;15.70;66.90;;;;;;4826338;29;20408;-81
2023/02/11 13:42:30;;;;;;;9.88;1.52;;;15.60;66.90;;;;;;4828904;29;20053;-76
2023/02/11 13:44:56;;;;;;;13.90;2.55;;;15.60;66.90;;;;;;4845306;29;20476;-75
2023/02/11 13:47:32;;;;;;;11.93;2.08;;;15.60;66.70;;;;;;4811501;29;20445;-74
2023/02/11 13:50:00;;;;;;;5.80;1.65;;;15.60;66.50;;;;;;4844210;29;20049;-76
2023/02/11 13:52:30;;;;;;;13.95;2.38;;;15.60;66.30;;;;;;4827673;29;20141;-77
2023/02/11 13:55:08;;;;;;;6.97;2.00;;;15.60;66.00;;;;;;4839839;29;20046;-77
2023/02/11 13:57:36;;;;;;;11.88;2.72;;;15.60;65.40;;;;;;4846079;29;20065;-79
2023/02/11 14:00:33;;;;;;;11.60;1.85;;;15.60;64.80;;;;;;4843559;29;20041;-76
2023/02/11 14:09:13;;;;;;;9.73;2.15;;;15.60;64.10;;;;;;4829281;29;20058;-79
2023/02/11 14:12:11;;;;;;;9.25;1.65;;;15.60;64.20;;;;;;4843693;29;20060;-80
2023/02/11 14:14:58;;;;;;;10.13;2.55;;;15.60;64.60;;;;;;4830551;29;20073;-75
2023/02/11 14:17:32;;;;;;;12.05;2.35;;;15.60;64.80;;;;;;4833933;29;20445;-77
2023/02/11 14:19:58;;;;;;;9.45;1.73;;;15.60;65.00;;;;;;4844764;29;20085;-76
2023/02/11 14:22:39;;;;;;;11.38;2.25;;;15.60;65.00;;;;;;4846440;29;20447;-77
2023/02/11 14:25:19;;;;;;;15.43;2.45;;;15.70;65.20;;;;;;4845763;29;20122;-83
2023/02/11 14:28:03;;;;;;;11.57;2.45;;;15.80;65.30;;;;;;4829857;29;20458;-78
2023/02/11 14:30:50;;;;;;;16.95;2.70;;;15.90;65.30;;;;;;4839498;29;20413;-78
2023/02/11 14:33:33;;;;;;;12.27;2.17;;;16.00;65.50;;;;;;4828776;29;20058;-77
2023/02/11 14:36:19;;;;;;;11.82;2.28;;;16.00;65.40;;;;;;4844942;29;20049;-78
2023/02/11 14:39:06;;;;;;;23.05;3.20;;;16.00;65.40;;;;;;4816294;29;20046;-78
2023/02/11 14:41:39;;;;;;;21.73;3.58;;;16.10;65.50;;;;;;4820357;29;20122;-77
2023/02/11 14:44:13;;;;;;;19.37;3.20;;;16.10;65.40;;;;;;4845436;29;20464;-80
2023/02/11 14:46:44;;;;;;;15.02;2.53;;;16.10;64.60;;;;;;4844695;29;20062;-77
2023/02/11 14:49:20;;;;;;;14.80;2.60;;;16.10;64.30;;;;;;4845069;29;20058;-77
2023/02/11 14:51:47;;;;;;;10.80;2.15;;;16.20;64.30;;;;;;4845325;29;20050;-78
2023/02/11 14:54:16;;;;;;;13.15;2.10;;;16.10;64.20;;;;;;4845725;29;20046;-76
2023/02/11 14:56:43;;;;;;;12.23;2.05;;;16.10;64.20;;;;;;4828942;29;20053;-73
2023/02/11 14:59:21;;;;;;;13.15;2.70;;;16.10;64.20;;;;;;4844905;29;20049;-80
2023/02/11 15:01:53;;;;;;;9.05;2.17;;;16.10;63.80;;;;;;4828758;29;20106;-79
2023/02/11 15:04:31;;;;;;;12.57;1.33;;;16.00;63.60;;;;;;4844458;29;20038;-81
2023/02/11 15:07:03;;;;;;;11.35;2.28;;;16.00;63.40;;;;;;4844959;29;20054;-80
2023/02/11 15:09:40;;;;;;;9.55;2.40;;;16.00;63.50;;;;;;4845962;29;20046;-79
2023/02/11 15:12:16;;;;;;;8.70;2.22;;;15.90;63.50;;;;;;4829368;29;20064;-78
2023/02/11 15:14:47;;;;;;;13.48;2.10;;;15.90;63.50;;;;;;4829353;29;20053;-81
2023/02/11 15:17:18;;;;;;;13.25;1.60;;;15.90;63.60;;;;;;4845212;29;20466;-80
2023/02/11 15:19:47;;;;;;;10.23;1.65;;;15.80;63.60;;;;;;4845030;29;20041;-78
2023/02/11 15:22:27;;;;;;;8.23;1.67;;;15.80;63.70;;;;;;4828984;29;20086;-78
2023/02/11 15:25:09;;;;;;;7.00;1.77;;;15.80;63.60;;;;;;4844084;29;20054;-79
2023/02/11 15:27:56;;;;;;;9.13;1.55;;;15.70;63.70;;;;;;4844022;29;20062;-78
2023/02/11 15:30:22;;;;;;;8.35;1.55;;;15.70;63.70;;;;;;4844676;29;20057;-78
2023/02/11 15:32:49;;;;;;;8.68;1.73;;;15.60;63.80;;;;;;4845108;29;20054;-78
2023/02/11 15:35:16;;;;;;;5.88;1.75;;;15.60;63.90;;;;;;4813771;29;20126;-80
2023/02/11 15:37:43;;;;;;;8.43;1.38;;;15.60;63.90;;;;;;4845105;29;20521;-77
2023/02/11 15:40:15;;;;;;;10.07;1.80;;;15.60;64.00;;;;;;4844489;29;20065;-79
2023/02/11 15:42:55;;;;;;;9.98;1.48;;;15.60;64.00;;;;;;4829041;29;20142;-78
2023/02/11 15:45:27;;;;;;;9.30;1.85;;;15.60;63.90;;;;;;4828952;29;20114;-78
2023/02/11 15:47:57;;;;;;;14.68;1.63;;;15.60;64.00;;;;;;4828581;29;20067;-75
2023/02/11 15:50:34;;;;;;;9.68;1.52;;;15.50;63.90;;;;;;4844047;29;20046;-77
2023/02/11 15:53:13;;;;;;;13.02;2.30;;;15.50;63.90;;;;;;4843810;29;20072;-77
2023/02/11 15:55:40;;;;;;;15.68;2.25;;;15.50;64.00;;;;;;4828545;29;20073;-78
2023/02/11 15:58:09;;;;;;;23.70;3.58;;;15.50;64.20;;;;;;4844652;29;20369;-77
2023/02/11 16:00:43;;;;;;;19.45;2.50;;;15.50;64.50;;;;;;4844494;29;20350;-72
2023/02/11 16:03:21;;;;;;;25.25;4.13;;;15.60;64.80;;;;;;4844742;29;20072;-77
2023/02/11 16:05:46;;;;;;;15.55;2.78;;;15.70;65.20;;;;;;4828817;29;20054;-77
2023/02/11 16:08:23;;;;;;;13.13;2.40;;;15.80;65.20;;;;;;4828180;29;20058;-77
2023/02/11 16:10:57;;;;;;;23.35;3.13;;;15.90;65.30;;;;;;4844213;29;20058;-78
2023/02/11 16:13:24;;;;;;;17.33;2.63;;;16.00;65.50;;;;;;4843815;29;20046;-77
2023/02/11 16:16:01;;;;;;;24.95;3.17;;;16.10;65.30;;;;;;4845006;29;20118;-77
2023/02/11 16:18:32;;;;;;;16.13;2.00;;;16.20;65.30;;;;;;4829005;29;20427;-78
2023/02/11 16:21:00;;;;;;;14.48;2.38;;;16.30;65.40;;;;;;4843713;29;20085;-78
2023/02/11 16:23:30;;;;;;;24.05;3.38;;;16.30;65.40;;;;;;4843777;29;20098;-78
2023/02/11 16:26:07;;;;;;;19.95;3.15;;;16.40;65.60;;;;;;4843859;29;20061;-75
2023/02/11 16:28:35;;;;;;;14.07;2.20;;;16.40;65.80;;;;;;4843988;29;20109;-78
2023/02/11 16:31:02;;;;;;;25.02;2.78;;;16.50;66.00;;;;;;4843866;29;20124;-78
2023/02/11 16:33:28;;;;;;;15.60;2.88;;;16.40;66.00;;;;;;4844136;29;20046;-77
2023/02/11 16:35:54;;;;;;;15.95;2.97;;;16.40;66.10;;;;;;4828313;29;20050;-76
2023/02/11 16:38:20;;;;;;;20.52;2.50;;;16.40;66.30;;;;;;4828456;29;20072;-77
2023/02/11 16:40:48;;;;;;;24.05;2.80;;;16.40;66.40;;;;;;4827573;29;20046;-77
2023/02/11 16:43:17;;;;;;;21.00;3.03;;;16.40;66.60;;;;;;4843612;29;20162;-77
2023/02/11 16:45:43;;;;;;;20.67;2.88;;;16.30;66.70;;;;;;4843873;29;20474;-76
2023/02/11 16:48:12;;;;;;;15.52;1.92;;;16.20;67.00;;;;;;4858217;29;20054;-77
2023/02/11 16:50:44;;;;;;;16.92;2.72;;;16.20;67.10;;;;;;4843881;29;20346;-75
2023/02/11 16:53:19;;;;;;;20.38;2.50;;;16.20;67.20;;;;;;4843185;29;20042;-77
2023/02/11 16:55:45;;;;;;;18.45;3.10;;;16.10;67.10;;;;;;4843221;29;20069;-78
2023/02/11 16:58:11;;;;;;;21.13;3.38;;;16.10;67.00;;;;;;4826874;29;20042;-76
2023/02/11 18:15:21;;;;;;;6.63;1.38;;;15.30;66.90;;;;;;5477020;23;20080;-72
2023/02/11 18:17:47;;;;;;;16.02;2.00;;;15.30;66.90;;;;;;4863542;29;20065;-75
2023/02/11 18:20:13;;;;;;;17.55;2.95;;;15.30;67.10;;;;;;4855274;29;20050;-78
2023/02/11 18:22:40;;;;;;;13.77;2.85;;;15.30;67.00;;;;;;4845955;29;20345;-73
2023/02/11 18:25:07;;;;;;;15.38;2.25;;;15.30;67.50;;;;;;4860603;29;20125;-69
2023/02/11 18:27:33;;;;;;;15.85;4.32;;;15.30;68.20;;;;;;4864285;29;20128;-73
2023/02/11 18:29:58;;;;;;;18.05;3.67;;;15.30;69.10;;;;;;4864869;29;20415;-75
2023/02/11 18:32:24;;;;;;;15.27;3.47;;;15.30;69.70;;;;;;4864662;29;20128;-76
2023/02/11 18:34:50;;;;;;;16.55;3.05;;;15.30;69.30;;;;;;4864376;29;20060;-75
2023/02/11 18:37:16;;;;;;;9.57;2.38;;;15.30;70.60;;;;;;4866373;29;20093;-71
2023/02/11 18:39:42;;;;;;;11.93;2.85;;;15.40;70.20;;;;;;4875250;29;20053;-72
2023/02/11 18:42:08;;;;;;;11.93;2.50;;;15.40;70.70;;;;;;4866756;29;20085;-74
2023/02/11 18:44:34;;;;;;;16.73;2.67;;;15.40;71.40;;;;;;4883617;29;20425;-75
2023/02/11 18:47:00;;;;;;;10.27;2.22;;;15.40;71.30;;;;;;4866218;29;20049;-75
2023/02/11 18:49:34;;;;;;;11.23;2.45;;;15.40;71.10;;;;;;4882296;29;20410;-79
2023/02/11 18:52:00;;;;;;;14.68;2.78;;;15.40;69.90;;;;;;4866063;29;20348;-78
2023/02/11 18:54:26;;;;;;;8.13;2.10;;;15.30;69.60;;;;;;4882738;29;20048;-77
2023/02/11 18:56:51;;;;;;;14.73;2.30;;;15.40;69.20;;;;;;4865517;29;20037;-76
2023/02/11 18:59:17;;;;;;;11.50;3.40;;;15.30;68.70;;;;;;4881189;29;20512;-78
2023/02/11 19:01:45;;;;;;;11.40;2.20;;;15.30;68.60;;;;;;4850554;29;20055;-77
2023/02/11 19:04:13;;;;;;;10.68;2.08;;;15.30;68.60;;;;;;4866204;29;20096;-78
2023/02/11 19:06:39;;;;;;;12.75;2.45;;;15.30;68.40;;;;;;4882134;29;20420;-77
2023/02/11 19:09:10;;;;;;;10.85;2.05;;;15.30;68.30;;;;;;4865787;29;20048;-78
2023/02/11 19:11:46;;;;;;;9.90;1.98;;;15.20;68.00;;;;;;4865967;29;20125;-78
2023/02/11 19:14:26;;;;;;;12.85;3.00;;;15.20;68.00;;;;;;4865679;29;20184;-79
2023/02/11 19:16:55;;;;;;;7.18;2.22;;;15.20;68.60;;;;;;4862615;29;20371;-78
2023/02/11 19:19:21;;;;;;;7.55;2.28;;;15.20;68.00;;;;;;4868171;29;20102;-77
2023/02/11 19:21:47;;;;;;;9.05;2.30;;;15.10;67.90;;;;;;4899713;29;20040;-79
2023/02/11 19:24:17;;;;;;;9.65;2.55;;;15.10;67.90;;;;;;4900051;29;20040;-81
2023/02/11 19:26:43;;;;;;;9.18;1.90;;;15.10;67.90;;;;;;4900769;29;20048;-78
2023/02/11 19:29:09;;;;;;;8.85;1.95;;;15.10;67.90;;;;;;4900446;29;20109;-79
2023/02/11 19:31:35;;;;;;;10.18;1.98;;;15.10;67.90;;;;;;4884723;29;20056;-78
2023/02/11 19:34:02;;;;;;;8.60;1.98;;;15.10;67.90;;;;;;4900764;29;20044;-76
2023/02/11 19:36:28;;;;;;;10.25;2.33;;;15.10;67.90;;;;;;4900719;29;20432;-77
2023/02/11 19:38:54;;;;;;;12.25;2.53;;;15.00;67.90;;;;;;4900569;29;20051;-80
